sensor_id;sensor_type;location;lat;lon;timestamp;pressure;altitude;pressure_sealevel;temperature;humidity
57904;BME280;43720;47.462;19.030;2022-08-19T04:15:14;99845.84;;;25.08;53.67
57904;BME280;43720;47.462;19.030;2022-08-19T04:18:17;99859.28;;;24.91;54.79
57904;BME280;43720;47.462;19.030;2022-08-19T04:21:22;99855.28;;;24.82;54.14
57904;BME280;43720;47.462;19.030;2022-08-19T04:24:25;99863.78;;;24.91;54.47
57904;BME280;43720;47.462;19.030;2022-08-19T04:27:27;99856.19;;;24.99;53.73
57904;BME280;43720;47.462;19.030;2022-08-19T04:30:30;99848.09;;;25.00;53.43
57904;BME280;43720;47.462;19.030;2022-08-19T04:33:32;99852.72;;;24.97;53.64
57904;BME280;43720;47.462;19.030;2022-08-19T04:36:36;99864.84;;;25.04;53.49
57904;BME280;43720;47.462;19.030;2022-08-19T04:39:38;99861.28;;;25.03;53.79
57904;BME280;43720;47.462;19.030;2022-08-19T04:43:03;99872.84;;;25.04;53.48
57904;BME280;43720;47.462;19.030;2022-08-19T04:46:08;99872.09;;;25.02;54.19
57904;BME280;43720;47.462;19.030;2022-08-19T04:49:11;99867.34;;;25.07;53.66
57904;BME280;43720;47.462;19.030;2022-08-19T04:52:14;99865.69;;;25.04;53.78
57904;BME280;43720;47.462;19.030;2022-08-19T04:55:17;99862.09;;;25.05;53.74
57904;BME280;43720;47.462;19.030;2022-08-19T04:58:19;99857.28;;;25.12;53.58
57904;BME280;43720;47.462;19.030;2022-08-19T05:01:25;99866.03;;;25.16;53.51
57904;BME280;43720;47.462;19.030;2022-08-19T05:04:27;99873.72;;;25.22;53.88
57904;BME280;43720;47.462;19.030;2022-08-19T05:07:34;99873.97;;;25.17;54.31
57904;BME280;43720;47.462;19.030;2022-08-19T05:10:37;99870.94;;;25.23;53.64
57904;BME280;43720;47.462;19.030;2022-08-19T05:13:41;99871.75;;;25.25;53.79
57904;BME280;43720;47.462;19.030;2022-08-19T05:16:44;99876.75;;;25.31;53.79
57904;BME280;43720;47.462;19.030;2022-08-19T05:19:47;99870.91;;;25.41;53.41
57904;BME280;43720;47.462;19.030;2022-08-19T05:23:10;99870.06;;;25.40;53.29
57904;BME280;43720;47.462;19.030;2022-08-19T05:26:25;99869.00;;;25.43;52.64
57904;BME280;43720;47.462;19.030;2022-08-19T05:29:29;99875.59;;;25.53;52.02
57904;BME280;43720;47.462;19.030;2022-08-19T05:32:38;99864.97;;;25.67;51.37
57904;BME280;43720;47.462;19.030;2022-08-19T05:35:41;99864.63;;;25.73;51.03
57904;BME280;43720;47.462;19.030;2022-08-19T05:38:43;99862.91;;;25.72;51.06
57904;BME280;43720;47.462;19.030;2022-08-19T05:41:53;99871.53;;;25.77;51.04
57904;BME280;43720;47.462;19.030;2022-08-19T05:44:59;99872.41;;;25.78;51.09
57904;BME280;43720;47.462;19.030;2022-08-19T05:48:01;99866.34;;;25.90;50.50
57904;BME280;43720;47.462;19.030;2022-08-19T05:51:07;99863.94;;;25.85;50.75
57904;BME280;43720;47.462;19.030;2022-08-19T05:54:10;99871.06;;;25.87;50.84
57904;BME280;43720;47.462;19.030;2022-08-19T05:57:15;99868.59;;;25.98;50.27
57904;BME280;43720;47.462;19.030;2022-08-19T06:00:17;99863.94;;;26.01;50.25
57904;BME280;43720;47.462;19.030;2022-08-19T06:03:25;99873.78;;;26.01;50.36
57904;BME280;43720;47.462;19.030;2022-08-19T06:06:28;99868.00;;;26.08;50.21
57904;BME280;43720;47.462;19.030;2022-08-19T06:09:30;99866.00;;;26.12;50.04
57904;BME280;43720;47.462;19.030;2022-08-19T06:12:33;99862.34;;;26.13;50.13
57904;BME280;43720;47.462;19.030;2022-08-19T06:15:36;99867.47;;;26.18;49.87
57904;BME280;43720;47.462;19.030;2022-08-19T06:18:38;99863.72;;;26.20;49.92
57904;BME280;43720;47.462;19.030;2022-08-19T06:21:44;99869.88;;;26.22;50.23
57904;BME280;43720;47.462;19.030;2022-08-19T06:24:46;99869.59;;;26.27;49.76
57904;BME280;43720;47.462;19.030;2022-08-19T06:27:49;99867.34;;;26.35;49.48
57904;BME280;43720;47.462;19.030;2022-08-19T06:31:14;99854.00;;;26.49;49.44
57904;BME280;43720;47.462;19.030;2022-08-19T06:34:19;99849.41;;;26.51;49.28
57904;BME280;43720;47.462;19.030;2022-08-19T06:37:21;99846.09;;;26.62;48.37
57904;BME280;43720;47.462;19.030;2022-08-19T06:40:24;99840.37;;;26.68;48.41
57904;BME280;43720;47.462;19.030;2022-08-19T06:43:29;99859.34;;;26.79;48.22
57904;BME280;43720;47.462;19.030;2022-08-19T06:46:31;99853.41;;;26.89;48.01
57904;BME280;43720;47.462;19.030;2022-08-19T06:49:36;99846.53;;;26.99;47.66
57904;BME280;43720;47.462;19.030;2022-08-19T06:52:39;99845.94;;;27.08;47.23
57904;BME280;43720;47.462;19.030;2022-08-19T06:55:42;99841.09;;;27.15;47.21
57904;BME280;43720;47.462;19.030;2022-08-19T06:58:44;99846.00;;;27.22;47.21
57904;BME280;43720;47.462;19.030;2022-08-19T07:01:50;99851.63;;;27.32;46.85
57904;BME280;43720;47.462;19.030;2022-08-19T07:04:53;99855.84;;;27.36;46.88
57904;BME280;43720;47.462;19.030;2022-08-19T07:07:55;99862.25;;;27.48;46.30
57904;BME280;43720;47.462;19.030;2022-08-19T07:11:07;99869.72;;;27.57;45.81
57904;BME280;43720;47.462;19.030;2022-08-19T07:14:12;99875.06;;;27.71;45.70
57904;BME280;43720;47.462;19.030;2022-08-19T07:17:20;99883.12;;;27.86;45.51
57904;BME280;43720;47.462;19.030;2022-08-19T07:20:22;99882.75;;;27.92;44.30
57904;BME280;43720;47.462;19.030;2022-08-19T07:23:30;99874.06;;;28.01;43.92
57904;BME280;43720;47.462;19.030;2022-08-19T07:26:38;99875.59;;;28.05;44.50
57904;BME280;43720;47.462;19.030;2022-08-19T07:29:43;99881.66;;;28.21;43.62
57904;BME280;43720;47.462;19.030;2022-08-19T07:32:45;99880.16;;;28.30;43.44
57904;BME280;43720;47.462;19.030;2022-08-19T07:35:51;99874.22;;;28.39;43.58
57904;BME280;43720;47.462;19.030;2022-08-19T07:38:54;99872.53;;;28.51;43.01
57904;BME280;43720;47.462;19.030;2022-08-19T07:41:59;99870.28;;;28.58;43.35
57904;BME280;43720;47.462;19.030;2022-08-19T07:45:02;99866.00;;;28.68;42.81
57904;BME280;43720;47.462;19.030;2022-08-19T07:48:05;99861.13;;;28.73;42.47
57904;BME280;43720;47.462;19.030;2022-08-19T07:51:08;99862.25;;;28.83;42.40
57904;BME280;43720;47.462;19.030;2022-08-19T07:54:16;99854.16;;;28.96;41.85
57904;BME280;43720;47.462;19.030;2022-08-19T07:57:19;99863.13;;;29.09;41.09
57904;BME280;43720;47.462;19.030;2022-08-19T08:00:21;99865.50;;;29.14;41.01
57904;BME280;43720;47.462;19.030;2022-08-19T08:03:27;99868.72;;;29.19;41.33
57904;BME280;43720;47.462;19.030;2022-08-19T08:06:48;99868.16;;;29.27;41.23
57904;BME280;43720;47.462;19.030;2022-08-19T08:10:09;99875.78;;;29.45;40.73
57904;BME280;43720;47.462;19.030;2022-08-19T08:13:22;99865.56;;;29.63;39.71
57904;BME280;43720;47.462;19.030;2022-08-19T08:16:24;99864.16;;;29.70;40.06
57904;BME280;43720;47.462;19.030;2022-08-19T08:19:33;99867.53;;;29.85;39.25
57904;BME280;43720;47.462;19.030;2022-08-19T08:22:36;99866.66;;;29.85;39.42
57904;BME280;43720;47.462;19.030;2022-08-19T08:25:57;99865.03;;;29.95;39.25
57904;BME280;43720;47.462;19.030;2022-08-19T08:29:00;99859.19;;;30.01;38.25
57904;BME280;43720;47.462;19.030;2022-08-19T08:32:13;99862.91;;;30.11;37.92
57904;BME280;43720;47.462;19.030;2022-08-19T08:35:20;99858.63;;;30.33;37.34
57904;BME280;43720;47.462;19.030;2022-08-19T08:38:23;99859.38;;;30.46;36.50
57904;BME280;43720;47.462;19.030;2022-08-19T08:47:40;99855.50;;;30.97;35.58
57904;BME280;43720;47.462;19.030;2022-08-19T08:50:45;99850.47;;;31.03;35.23
57904;BME280;43720;47.462;19.030;2022-08-19T08:53:51;99834.66;;;30.99;35.24
57904;BME280;43720;47.462;19.030;2022-08-19T08:56:57;99836.97;;;31.03;34.73
57904;BME280;43720;47.462;19.030;2022-08-19T09:00:03;99830.22;;;31.09;34.62
57904;BME280;43720;47.462;19.030;2022-08-19T09:03:20;99844.09;;;31.04;34.96
57904;BME280;43720;47.462;19.030;2022-08-19T09:07:03;99851.09;;;31.07;35.14
57904;BME280;43720;47.462;19.030;2022-08-19T09:10:38;99841.63;;;31.12;35.70
57904;BME280;43720;47.462;19.030;2022-08-19T09:17:30;99834.94;;;31.40;35.89
57904;BME280;43720;47.462;19.030;2022-08-19T09:20:33;99844.22;;;31.48;34.97
57904;BME280;43720;47.462;19.030;2022-08-19T09:23:36;99834.53;;;31.56;35.44
57904;BME280;43720;47.462;19.030;2022-08-19T09:26:39;99827.38;;;31.66;34.85
57904;BME280;43720;47.462;19.030;2022-08-19T09:29:54;99823.03;;;31.86;34.78
57904;BME280;43720;47.462;19.030;2022-08-19T09:32:56;99814.03;;;31.97;33.73
57904;BME280;43720;47.462;19.030;2022-08-19T09:36:07;99807.38;;;32.01;33.94
57904;BME280;43720;47.462;19.030;2022-08-19T09:39:10;99812.41;;;32.06;33.39
57904;BME280;43720;47.462;19.030;2022-08-19T09:42:17;99807.81;;;32.18;33.50
57904;BME280;43720;47.462;19.030;2022-08-19T09:45:31;99806.03;;;32.28;33.16
57904;BME280;43720;47.462;19.030;2022-08-19T09:48:36;99809.91;;;32.46;32.86
57904;BME280;43720;47.462;19.030;2022-08-19T09:51:39;99799.94;;;32.47;32.70
57904;BME280;43720;47.462;19.030;2022-08-19T09:54:41;99798.78;;;32.60;32.97
57904;BME280;43720;47.462;19.030;2022-08-19T09:57:45;99789.38;;;32.65;32.17
57904;BME280;43720;47.462;19.030;2022-08-19T10:00:47;99774.78;;;32.77;31.88
57904;BME280;43720;47.462;19.030;2022-08-19T10:03:56;99777.94;;;32.82;31.65
57904;BME280;43720;47.462;19.030;2022-08-19T10:06:58;99789.78;;;32.91;31.31
57904;BME280;43720;47.462;19.030;2022-08-19T10:10:04;99782.81;;;32.88;31.25
57904;BME280;43720;47.462;19.030;2022-08-19T10:13:08;99788.72;;;33.03;31.20
57904;BME280;43720;47.462;19.030;2022-08-19T10:16:20;99785.94;;;33.14;31.50
57904;BME280;43720;47.462;19.030;2022-08-19T10:19:30;99776.56;;;33.28;31.25
57904;BME280;43720;47.462;19.030;2022-08-19T10:22:37;99766.44;;;33.30;30.88
57904;BME280;43720;47.462;19.030;2022-08-19T10:25:40;99773.03;;;33.37;30.96
57904;BME280;43720;47.462;19.030;2022-08-19T10:28:44;99760.78;;;33.43;30.97
57904;BME280;43720;47.462;19.030;2022-08-19T10:31:48;99766.06;;;33.44;30.32
57904;BME280;43720;47.462;19.030;2022-08-19T10:35:04;99768.25;;;33.50;30.73
57904;BME280;43720;47.462;19.030;2022-08-19T10:38:10;99772.25;;;33.56;30.81
